createdAt,value
2019-05-18T00:00:03.903Z,11.79
2019-05-18T00:05:09.892Z,11.88
2019-05-18T00:15:26.384Z,11.97
2019-05-18T00:26:02.355Z,11.99
2019-05-18T00:31:07.863Z,11.97
2019-05-18T00:36:13.312Z,11.94
2019-05-18T00:41:18.626Z,11.99
2019-05-18T00:46:23.891Z,12.01
2019-05-18T00:51:29.280Z,11.98
2019-05-18T00:56:34.592Z,12.10
2019-05-18T01:01:39.969Z,12.10
2019-05-18T01:06:45.724Z,12.05
2019-05-18T01:11:51.143Z,12.04
2019-05-18T01:16:56.659Z,12.07
2019-05-18T01:22:01.971Z,11.92
2019-05-18T01:27:07.382Z,11.86
2019-05-18T01:32:12.706Z,11.82
2019-05-18T01:37:18.154Z,11.69
2019-05-18T01:42:23.622Z,11.72
2019-05-18T01:47:28.969Z,11.61
2019-05-18T01:52:34.337Z,11.54
2019-05-18T01:57:39.677Z,11.57
2019-05-18T02:02:45.366Z,11.46
2019-05-18T02:07:50.969Z,11.54
2019-05-18T02:12:56.376Z,11.54
2019-05-18T02:18:01.726Z,11.48
2019-05-18T02:23:07.170Z,11.60
2019-05-18T02:28:12.490Z,11.68
2019-05-18T02:33:17.913Z,11.60
2019-05-18T02:38:23.271Z,11.51
2019-05-18T02:43:28.582Z,11.53
2019-05-18T02:48:48.901Z,11.48
2019-05-18T02:53:41.065Z,11.39
2019-05-18T02:58:46.359Z,11.30
2019-05-18T03:03:51.771Z,11.31
2019-05-18T03:08:57.086Z,11.34
2019-05-18T03:14:02.577Z,11.31
2019-05-18T03:19:09.297Z,11.46
2019-05-18T03:24:14.736Z,11.60
2019-05-18T03:29:20.191Z,11.57
2019-05-18T03:34:25.622Z,11.45
2019-05-18T03:39:30.960Z,11.58
2019-05-18T03:44:36.201Z,11.50
2019-05-18T03:49:41.515Z,11.65
2019-05-18T03:54:46.907Z,11.75
2019-05-18T03:59:52.221Z,11.63
2019-05-18T04:04:57.631Z,11.69
2019-05-18T04:10:02.946Z,11.81
2019-05-18T04:15:08.766Z,11.69
2019-05-18T04:20:14.299Z,11.54
2019-05-18T04:25:19.588Z,11.69
2019-05-18T04:30:25.116Z,11.78
2019-05-18T04:35:30.383Z,11.76
2019-05-18T04:40:35.832Z,11.57
2019-05-18T04:45:41.214Z,11.59
2019-05-18T04:50:46.598Z,11.65
2019-05-18T04:55:51.944Z,11.58
2019-05-18T05:00:57.302Z,11.42
2019-05-18T05:06:02.618Z,11.32
2019-05-18T05:11:07.848Z,11.29
2019-05-18T05:16:13.460Z,11.25
2019-05-18T05:21:18.739Z,11.22
2019-05-18T05:26:24.206Z,11.25
2019-05-18T05:31:29.770Z,11.31
2019-05-18T05:36:35.030Z,11.32
2019-05-18T05:41:40.272Z,11.33
2019-05-18T05:46:45.643Z,11.32
2019-05-18T05:51:51.057Z,11.36
2019-05-18T05:56:56.379Z,11.32
2019-05-18T06:02:02.017Z,11.39
2019-05-18T06:07:07.375Z,11.40
2019-05-18T06:12:12.661Z,11.38
2019-05-18T06:17:18.062Z,11.36
2019-05-18T06:22:23.449Z,11.40
2019-05-18T06:27:28.814Z,11.42
2019-05-18T06:32:34.055Z,11.48
2019-05-18T06:37:39.427Z,11.51
2019-05-18T06:42:44.674Z,11.56
2019-05-18T06:47:50.027Z,11.67
2019-05-18T06:52:55.353Z,11.70
2019-05-18T06:58:01.985Z,11.77
2019-05-18T07:03:07.285Z,11.89
2019-05-18T07:08:12.938Z,11.90
2019-05-18T07:13:18.355Z,11.98
2019-05-18T07:18:23.585Z,11.98
2019-05-18T07:23:29.038Z,12.04
2019-05-18T07:28:34.646Z,12.24
2019-05-18T07:33:40.187Z,12.26
2019-05-18T07:38:45.835Z,12.53
2019-05-18T07:43:51.329Z,12.69
2019-05-18T07:50:12.295Z,13.00
2019-05-18T07:55:17.862Z,12.87
2019-05-18T08:00:22.875Z,12.94
2019-05-18T08:10:45.121Z,12.64
2019-05-18T08:15:50.449Z,12.74
2019-05-18T08:20:55.215Z,13.08
2019-05-18T08:26:00.160Z,13.08
2019-05-18T08:31:05.102Z,12.89
2019-05-18T08:36:10.830Z,12.91
2019-05-18T08:41:15.608Z,12.90
2019-05-18T08:46:20.631Z,12.90
2019-05-18T08:51:25.475Z,12.93
2019-05-18T08:56:30.715Z,13.04
2019-05-18T09:01:36.479Z,13.14
2019-05-18T09:06:41.222Z,13.63
2019-05-18T09:11:46.436Z,13.68
2019-05-18T09:16:51.567Z,13.97
2019-05-18T09:21:56.343Z,14.97
2019-05-18T09:27:02.236Z,15.78
2019-05-18T09:32:07.331Z,15.81
2019-05-18T09:37:12.354Z,15.81
2019-05-18T09:42:17.243Z,15.38
2019-05-18T09:47:22.667Z,15.47
2019-05-18T09:52:44.075Z,15.28
2019-05-18T09:57:34.187Z,15.38
2019-05-18T10:02:39.487Z,15.50
2019-05-18T10:07:44.460Z,15.57
2019-05-18T10:12:49.294Z,15.46
2019-05-18T10:17:54.224Z,15.44
2019-05-18T10:23:11.966Z,15.87
2019-05-18T10:28:05.730Z,16.16
2019-05-18T10:33:11.006Z,16.61
2019-05-18T10:38:16.087Z,16.47
2019-05-18T10:43:20.841Z,16.43
2019-05-18T10:48:25.745Z,16.55
2019-05-18T10:53:30.526Z,16.50
2019-05-18T10:58:35.888Z,16.07
2019-05-18T11:03:40.769Z,15.64
2019-05-18T11:08:45.658Z,15.64
2019-05-18T11:13:50.407Z,16.36
2019-05-18T11:18:55.176Z,17.10
2019-05-18T11:24:00.087Z,16.65
2019-05-18T11:29:04.870Z,16.92
2019-05-18T11:34:09.712Z,17.48
2019-05-18T11:39:14.547Z,17.03
2019-05-18T11:44:19.549Z,16.80
2019-05-18T11:49:24.374Z,16.71
2019-05-18T11:54:29.104Z,16.72
2019-05-18T11:59:34.929Z,16.89
2019-05-18T12:04:40.121Z,16.76
2019-05-18T12:09:45.110Z,17.48
2019-05-18T12:14:49.789Z,18.20
2019-05-18T12:19:54.669Z,19.68
2019-05-18T12:24:59.451Z,20.43
2019-05-18T12:30:04.483Z,19.70
2019-05-18T12:35:09.599Z,19.19
2019-05-18T12:40:18.660Z,19.48
2019-05-18T12:45:24.111Z,19.53
2019-05-18T12:50:29.320Z,19.03
2019-05-18T12:55:34.342Z,19.33
2019-05-18T13:00:39.221Z,19.76
2019-05-18T13:05:44.071Z,19.28
2019-05-18T13:10:49.029Z,18.91
2019-05-18T13:15:53.695Z,19.54
2019-05-18T13:20:58.746Z,19.39
2019-05-18T13:26:03.941Z,19.39
2019-05-18T13:31:08.950Z,19.81
2019-05-18T13:36:13.759Z,20.43
2019-05-18T13:41:18.636Z,21.00
2019-05-18T13:46:24.106Z,20.77
2019-05-18T13:51:28.978Z,20.78
2019-05-18T13:56:34.029Z,21.51
2019-05-18T14:01:38.991Z,21.21
2019-05-18T14:06:43.958Z,21.09
2019-05-18T14:11:49.155Z,20.27
2019-05-18T14:16:54.119Z,20.33
2019-05-18T14:21:59.272Z,20.30
2019-05-18T14:27:04.166Z,20.57
2019-05-18T14:32:11.090Z,19.95
2019-05-18T14:37:16.026Z,19.57
2019-05-18T14:42:21.043Z,19.61
2019-05-18T14:47:27.514Z,19.36
2019-05-18T14:52:32.563Z,19.32
2019-05-18T14:57:37.419Z,19.48
2019-05-18T15:02:42.189Z,18.27
2019-05-18T15:07:46.937Z,18.30
2019-05-18T15:12:51.795Z,18.43
2019-05-18T15:17:56.937Z,17.40
2019-05-18T15:23:01.724Z,17.21
2019-05-18T15:28:07.046Z,17.21
2019-05-18T15:33:11.936Z,17.32
2019-05-18T15:38:16.737Z,17.02
2019-05-18T15:43:21.558Z,16.67
2019-05-18T15:48:26.789Z,16.63
2019-05-18T15:53:31.677Z,17.33
2019-05-18T15:58:36.555Z,17.42
2019-05-18T16:03:41.513Z,17.14
2019-05-18T16:08:46.621Z,16.55
2019-05-18T16:13:51.536Z,16.22
2019-05-18T16:18:56.362Z,15.68
2019-05-18T16:24:01.260Z,15.68
2019-05-18T16:29:06.240Z,15.77
2019-05-18T16:34:11.450Z,15.82
2019-05-18T16:39:16.394Z,15.69
2019-05-18T16:44:21.259Z,15.62
2019-05-18T16:49:26.125Z,15.43
2019-05-18T16:54:30.898Z,15.55
2019-05-18T16:59:35.944Z,15.22
2019-05-18T17:04:40.866Z,14.88
2019-05-18T17:09:45.599Z,14.70
2019-05-18T17:14:51.014Z,14.74
2019-05-18T17:19:56.183Z,14.33
2019-05-18T17:25:01.259Z,14.18
2019-05-18T17:30:06.483Z,13.97
2019-05-18T17:35:11.922Z,13.66
2019-05-18T17:40:18.274Z,13.59
2019-05-18T17:45:23.288Z,13.63
2019-05-18T17:50:28.329Z,13.88
2019-05-18T17:55:33.225Z,13.91
2019-05-18T18:00:38.192Z,13.95
2019-05-18T18:05:43.020Z,13.81
2019-05-18T18:16:04.679Z,13.63
2019-05-18T18:21:09.660Z,13.67
2019-05-18T18:26:14.326Z,13.59
2019-05-18T18:31:19.091Z,13.51
2019-05-18T18:36:24.387Z,13.43
2019-05-18T18:46:59.707Z,13.15
2019-05-18T18:52:05.420Z,13.03
2019-05-18T19:08:08.532Z,12.78
2019-05-18T19:24:07.493Z,12.70
2019-05-18T19:29:12.244Z,12.57
2019-05-18T19:34:17.309Z,12.40
2019-05-18T19:39:22.189Z,12.31
2019-05-18T19:44:27.010Z,12.19
2019-05-18T19:49:31.767Z,12.06
2019-05-18T19:54:36.651Z,11.94
2019-05-18T19:59:41.418Z,11.82
2019-05-18T20:05:05.901Z,11.82
2019-05-18T20:09:53.045Z,11.65
2019-05-18T20:14:57.929Z,11.47
2019-05-18T20:20:02.739Z,11.38
2019-05-18T20:25:08.647Z,11.32
2019-05-18T20:30:14.112Z,11.32
2019-05-18T20:35:19.010Z,11.30
2019-05-18T20:40:24.251Z,11.28
2019-05-18T20:45:28.991Z,11.28
2019-05-18T20:50:33.759Z,11.30
2019-05-18T20:55:38.730Z,11.35
2019-05-18T21:00:43.469Z,11.37
2019-05-18T21:05:48.740Z,11.39
2019-05-18T21:10:53.686Z,11.43
2019-05-18T21:15:58.408Z,11.43
2019-05-18T21:21:03.208Z,11.43
2019-05-18T21:26:07.969Z,11.39
2019-05-18T21:31:12.922Z,11.36
2019-05-18T21:36:17.711Z,11.29
2019-05-18T21:41:22.650Z,11.31
2019-05-18T21:46:27.561Z,11.28
2019-05-18T21:51:32.382Z,11.30
2019-05-18T21:56:37.346Z,11.45
2019-05-18T22:01:42.673Z,11.52
2019-05-18T22:06:47.550Z,11.57
2019-05-18T22:11:52.310Z,11.60
2019-05-18T22:16:57.227Z,11.61
2019-05-18T22:22:02.062Z,11.47
2019-05-18T22:27:06.989Z,11.44
2019-05-18T22:32:12.045Z,11.44
2019-05-18T22:37:17.110Z,11.45
2019-05-18T22:42:22.047Z,11.46
2019-05-18T22:47:26.887Z,11.48
2019-05-18T22:52:31.790Z,11.49
2019-05-18T22:57:36.759Z,11.44
2019-05-18T23:02:41.519Z,11.43
2019-05-18T23:07:46.639Z,11.40
2019-05-18T23:12:51.507Z,11.35
2019-05-18T23:17:56.489Z,11.32
2019-05-18T23:23:01.290Z,11.33
2019-05-18T23:28:06.087Z,11.26
2019-05-18T23:33:10.911Z,11.17
2019-05-18T23:38:15.767Z,11.10
2019-05-18T23:43:20.605Z,11.01
2019-05-18T23:48:25.421Z,11.02
2019-05-18T23:53:30.123Z,10.98
2019-05-18T23:58:34.944Z,11.01
